createdAt,value
2024-05-09T00:02:07.159Z,1.5
2024-05-09T00:07:07.559Z,0
2024-05-09T00:17:05.677Z,0
2024-05-09T00:22:06.119Z,0
2024-05-09T00:26:53.020Z,0
2024-05-09T00:32:07.218Z,0
2024-05-09T00:37:03.383Z,0
2024-05-09T00:42:06.235Z,1.5
2024-05-09T00:47:09.185Z,0
2024-05-09T00:51:57.536Z,0
2024-05-09T00:56:54.105Z,0
2024-05-09T01:02:07.736Z,0
2024-05-09T01:07:02.973Z,0
2024-05-09T01:12:04.336Z,0
2024-05-09T01:17:05.885Z,0
2024-05-09T01:22:02.523Z,0
2024-05-09T01:27:09.411Z,0
2024-05-09T01:32:14.383Z,0
2024-05-09T01:37:11.462Z,0
2024-05-09T01:42:07.309Z,0
2024-05-09T01:47:15.218Z,0
2024-05-09T01:52:03.182Z,0
2024-05-09T01:57:02.176Z,0
2024-05-09T02:02:13.695Z,0
2024-05-09T02:07:08.669Z,0
2024-05-09T02:12:04.860Z,1.5
2024-05-09T02:17:13.690Z,3
2024-05-09T02:22:12.852Z,0
2024-05-09T02:32:11.687Z,0
2024-05-09T02:37:08.343Z,0
2024-05-09T02:42:08.680Z,0
2024-05-09T02:47:11.681Z,0
2024-05-09T02:52:04.543Z,0
2024-05-09T02:57:10.025Z,0
2024-05-09T03:02:14.256Z,1
2024-05-09T03:07:02.406Z,1.875
2024-05-09T03:12:12.004Z,4.375
2024-05-09T03:17:01.411Z,8.923
2024-05-09T03:22:01.589Z,12.846
2024-05-09T03:27:08.581Z,19.077
2024-05-09T03:32:09.230Z,36.385
2024-05-09T03:37:12.757Z,57.769
2024-05-09T03:42:03.487Z,57.538
2024-05-09T03:47:17.837Z,64.923
2024-05-09T03:57:02.740Z,74.615
2024-05-09T04:02:17.426Z,87.692
2024-05-09T04:07:11.663Z,119.167
2024-05-09T04:12:08.921Z,108.308
2024-05-09T04:17:11.622Z,109.538
2024-05-09T04:22:14.758Z,154.364
2024-05-09T04:27:16.282Z,206.6
2024-05-09T04:32:12.758Z,199.4
2024-05-09T04:37:14.801Z,353.125
2024-05-09T04:42:13.535Z,402.875
2024-05-09T04:47:13.519Z,451.375
2024-05-09T04:52:05.855Z,487.125
2024-05-09T04:57:09.851Z,584.875
2024-05-09T05:02:11.428Z,836.75
2024-05-09T05:07:15.694Z,838.5
2024-05-09T05:12:16.515Z,703.125
2024-05-09T05:17:11.031Z,729.5
2024-05-09T05:22:14.697Z,686
2024-05-09T05:27:13.061Z,605.625
2024-05-09T05:32:12.218Z,646.125
2024-05-09T05:37:07.151Z,732
2024-05-09T05:42:12.316Z,840.25
2024-05-09T05:47:06.250Z,975.25
2024-05-09T05:52:19.675Z,1156.125
2024-05-09T05:57:17.462Z,1281.375
2024-05-09T06:02:10.011Z,1452.875
2024-05-09T06:07:15.739Z,1482.125
2024-05-09T06:12:11.585Z,2599.167
2024-05-09T06:17:14.998Z,1479.875
2024-05-09T06:22:10.986Z,1411.875
2024-05-09T06:27:11.271Z,1665.375
2024-05-09T06:32:23.811Z,1391.375
2024-05-09T06:37:12.876Z,1404.75
2024-05-09T06:42:10.626Z,1512.375
2024-05-09T06:47:20.422Z,1546.125
2024-05-09T06:52:17.480Z,2354
2024-05-09T06:57:14.790Z,2071
2024-05-09T07:02:15.945Z,4850.5
2024-05-09T07:07:13.264Z,3745.2
2024-05-09T07:12:15.408Z,3722.4
2024-05-09T07:17:16.917Z,3794.2
2024-05-09T07:22:15.507Z,3842
2024-05-09T07:27:20.593Z,2638.667
2024-05-09T07:32:16.762Z,2224.125
2024-05-09T07:37:13.992Z,2940.2
2024-05-09T07:42:11.079Z,5168.5
2024-05-09T07:54:38.967Z,5229
2024-05-09T07:55:01.486Z,5365
2024-05-09T07:57:15.408Z,5478.75
2024-05-09T08:02:25.063Z,5661
2024-05-09T08:07:15.648Z,5731
2024-05-09T08:12:11.387Z,5824
2024-05-09T08:17:14.565Z,6078
2024-05-09T08:22:13.896Z,6139.2
2024-05-09T08:27:17.359Z,6213.2
2024-05-09T08:32:17.489Z,6342.8
2024-05-09T08:37:10.082Z,6432.4
2024-05-09T08:42:05.606Z,6530.8
2024-05-09T08:47:14.596Z,6672.4
2024-05-09T08:52:16.116Z,6729.6
2024-05-09T08:57:12.238Z,6877
2024-05-09T09:02:10.712Z,6914.2
2024-05-09T09:07:06.384Z,7023.6
2024-05-09T09:12:10.677Z,7135.2
2024-05-09T09:17:06.746Z,7181.8
2024-05-09T09:22:07.783Z,7293.2
2024-05-09T09:27:14.557Z,7352.4
2024-05-09T09:32:13.895Z,7406.2
2024-05-09T09:37:02.211Z,7452.8
2024-05-09T09:42:05.992Z,7495.2
2024-05-09T09:47:20.344Z,7511.4
2024-05-09T09:52:12.469Z,7636.6
2024-05-09T09:57:07.201Z,7686
2024-05-09T10:02:17.036Z,7733.4
2024-05-09T10:07:10.358Z,7777
2024-05-09T10:12:06.350Z,7850.8
2024-05-09T10:17:09.815Z,7868.4
2024-05-09T10:22:06.539Z,7882.2
2024-05-09T10:27:09.178Z,7885.8
2024-05-09T10:32:12.897Z,7779
2024-05-09T10:37:09.738Z,7818.6
2024-05-09T10:42:12.845Z,7822.8
2024-05-09T10:47:30.826Z,7796.6
2024-05-09T10:52:17.816Z,7732
2024-05-09T11:02:25.683Z,7724.6
2024-05-09T11:07:20.379Z,7556
2024-05-09T11:12:11.988Z,808
2024-05-09T11:17:11.986Z,509.125
2024-05-09T11:22:11.249Z,479.25
2024-05-09T11:32:25.044Z,453.5
2024-05-09T11:37:14.242Z,439.75
2024-05-09T11:42:10.372Z,444
2024-05-09T11:47:16.824Z,442.375
2024-05-09T11:52:09.639Z,423.875
2024-05-09T11:57:07.322Z,409
2024-05-09T12:02:14.463Z,408.375
2024-05-09T12:07:05.960Z,419.125
2024-05-09T12:12:10.014Z,406.125
2024-05-09T12:16:59.474Z,416
2024-05-09T12:22:05.317Z,441.5
2024-05-09T12:27:10.104Z,338.875
2024-05-09T12:32:15.948Z,380.625
2024-05-09T12:37:08.142Z,306
2024-05-09T12:42:01.035Z,462
2024-05-09T12:47:11.015Z,582.625
2024-05-09T12:52:00.740Z,467.75
2024-05-09T12:57:16.337Z,605
2024-05-09T13:02:15.212Z,324
2024-05-09T13:07:15.922Z,358.5
2024-05-09T13:12:16.534Z,366.875
2024-05-09T13:17:16.738Z,356.75
2024-05-09T13:27:17.462Z,376.75
2024-05-09T13:32:22.503Z,311.125
2024-05-09T13:37:14.048Z,299.5
2024-05-09T13:42:06.714Z,290
2024-05-09T13:47:19.038Z,282.875
2024-05-09T13:52:11.155Z,277.25
2024-05-09T13:57:13.358Z,273.375
2024-05-09T14:02:13.910Z,269.375
2024-05-09T14:07:17.870Z,265.875
2024-05-09T14:12:11.565Z,259.75
2024-05-09T14:17:13.173Z,254.625
2024-05-09T14:22:15.929Z,251.625
2024-05-09T14:27:12.888Z,250.625
2024-05-09T14:32:15.696Z,247.375
2024-05-09T14:37:11.084Z,244
2024-05-09T14:42:08.253Z,239.125
2024-05-09T14:47:17.490Z,236
2024-05-09T14:51:56.485Z,231.375
2024-05-09T14:57:12.252Z,227.125
2024-05-09T15:02:15.649Z,223
2024-05-09T15:12:05.660Z,217.444
2024-05-09T15:17:11.095Z,195.8
2024-05-09T15:22:09.961Z,192.2
2024-05-09T15:27:12.941Z,188.6
2024-05-09T15:32:13.240Z,186.4
2024-05-09T15:37:11.025Z,184.5
2024-05-09T15:42:12.236Z,182.3
2024-05-09T15:47:17.825Z,179.7
2024-05-09T15:52:16.354Z,177.8
2024-05-09T16:02:18.119Z,172.8
2024-05-09T16:07:10.085Z,170.2
2024-05-09T16:12:08.837Z,159.273
2024-05-09T16:17:07.493Z,157.636
2024-05-09T16:22:04.307Z,155.545
2024-05-09T16:27:09.653Z,153
2024-05-09T16:32:07.418Z,150.364
2024-05-09T16:37:04.945Z,147.727
2024-05-09T16:41:59.222Z,135.917
2024-05-09T16:47:08.771Z,133
2024-05-09T16:52:12.357Z,130.917
2024-05-09T16:57:10.622Z,127.5
2024-05-09T17:02:27.926Z,124.167
2024-05-09T17:07:07.264Z,111.077
2024-05-09T17:12:10.757Z,103.923
2024-05-09T17:22:13.280Z,91.769
2024-05-09T17:27:11.195Z,87.923
2024-05-09T17:32:16.453Z,78.615
2024-05-09T17:37:08.568Z,78.077
2024-05-09T17:42:12.786Z,75.538
2024-05-09T17:47:11.670Z,69.769
2024-05-09T17:52:09.440Z,62.154
2024-05-09T17:57:12.670Z,52.923
2024-05-09T18:02:12.521Z,42.533
2024-05-09T18:07:05.784Z,31
2024-05-09T18:12:11.858Z,20.077
2024-05-09T18:16:55.967Z,11.933
2024-05-09T18:22:06.760Z,5.933
2024-05-09T18:26:57.081Z,2.833
2024-05-09T18:31:54.100Z,1
2024-05-09T18:37:08.162Z,0
2024-05-09T18:42:09.586Z,0
2024-05-09T18:46:58.102Z,0
2024-05-09T18:51:58.155Z,0
2024-05-09T18:56:55.985Z,3
2024-05-09T19:02:07.508Z,2.5
2024-05-09T19:07:03.926Z,2.5
2024-05-09T19:12:04.544Z,0
2024-05-09T19:17:07.496Z,0
2024-05-09T19:22:09.993Z,1.5
2024-05-09T19:27:09.729Z,0
2024-05-09T19:32:18.993Z,0
2024-05-09T19:37:10.203Z,0
2024-05-09T19:42:09.413Z,0
2024-05-09T19:47:12.801Z,0
2024-05-09T19:52:09.609Z,0
2024-05-09T19:57:03.635Z,0
2024-05-09T20:02:19.421Z,2.333
2024-05-09T20:12:10.275Z,0
2024-05-09T20:17:07.487Z,0
2024-05-09T20:27:07.051Z,0
2024-05-09T20:32:09.808Z,1.5
2024-05-09T20:37:08.992Z,0
2024-05-09T20:42:06.719Z,0
2024-05-09T20:47:06.868Z,2
2024-05-09T20:52:02.358Z,1.5
2024-05-09T20:57:06.802Z,0
2024-05-09T21:02:17.016Z,2.5
2024-05-09T21:07:08.747Z,0
2024-05-09T21:12:09.494Z,0
2024-05-09T21:17:08.356Z,1
2024-05-09T21:27:11.280Z,0
2024-05-09T21:32:10.919Z,0
2024-05-09T21:37:05.658Z,0
2024-05-09T21:42:08.158Z,0
2024-05-09T21:47:10.261Z,0
2024-05-09T21:52:11.609Z,0
2024-05-09T22:02:11.961Z,0
2024-05-09T22:07:08.436Z,0
2024-05-09T22:12:10.318Z,0
2024-05-09T22:17:31.392Z,0
2024-05-09T22:22:09.459Z,0
2024-05-09T22:27:09.108Z,0
2024-05-09T22:32:17.676Z,0
2024-05-09T22:37:03.827Z,0
2024-05-09T22:42:04.892Z,0
2024-05-09T22:47:15.668Z,0
2024-05-09T22:52:05.058Z,0
2024-05-09T22:57:03.518Z,0
2024-05-09T23:02:15.806Z,0
2024-05-09T23:07:05.766Z,0
2024-05-09T23:12:06.652Z,0
2024-05-09T23:17:16.526Z,0
2024-05-09T23:22:08.679Z,0
2024-05-09T23:27:09.990Z,0
2024-05-09T23:32:13.616Z,0
2024-05-09T23:37:09.382Z,1
2024-05-09T23:42:08.060Z,0
2024-05-09T23:47:17.248Z,0
2024-05-09T23:52:09.421Z,0
2024-05-09T23:57:12.475Z,0
